Time;durP1;ratioP1;P1;durP2;ratioP2;P2;SDS_P1;SDS_P2;PMS_P1;PMS_P2;Temp;Humidity;BMP_temperature;BMP_pressure;BME280_temperature;BME280_humidity;BME280_pressure;Samples;Min_cycle;Max_cycle;Signal;HPM_P1;HPM_P2
2022/01/12 05:01:48;;;;;;;12.27;8.00;;;-0.50;99.90;;;;;;5445286;23;20545;-77
2022/01/12 05:07:22;;;;;;;12.73;7.80;;;-0.50;99.90;;;;;;4993784;28;20435;-78
2022/01/12 05:12:43;;;;;;;17.50;9.30;;;-0.50;99.90;;;;;;4993456;28;20450;-78
2022/01/12 05:12:52;;;;;;;15.13;8.70;;;-0.60;99.90;;;;;;4973968;28;20444;-78
2022/01/12 05:15:26;;;;;;;13.23;8.87;;;-0.60;99.90;;;;;;4998096;23;20499;-76
2022/01/12 05:17:55;;;;;;;16.13;7.90;;;-0.60;99.90;;;;;;4974302;28;20456;-76
2022/01/12 05:20:23;;;;;;;12.07;8.63;;;-0.60;99.90;;;;;;4973915;28;20558;-76
2022/01/12 05:22:50;;;;;;;11.80;7.63;;;-0.60;99.90;;;;;;4974018;28;20547;-76
2022/01/12 05:25:18;;;;;;;12.40;8.30;;;-0.70;99.90;;;;;;4973658;28;20579;-76
2022/01/12 05:27:45;;;;;;;15.77;8.73;;;-0.60;99.90;;;;;;4974179;28;20528;-76
2022/01/12 05:30:13;;;;;;;15.07;8.83;;;-0.60;99.90;;;;;;4973888;28;20452;-76
2022/01/12 05:32:41;;;;;;;13.93;8.47;;;-0.70;99.90;;;;;;4973998;28;20962;-76
2022/01/12 05:35:12;;;;;;;18.83;10.03;;;-0.70;99.90;;;;;;4973951;28;20480;-76
2022/01/12 05:37:40;;;;;;;13.50;8.90;;;-0.70;99.90;;;;;;4973783;28;20440;-76
2022/01/12 05:40:08;;;;;;;13.80;9.30;;;-0.70;99.90;;;;;;4973136;28;20511;-76
2022/01/12 05:42:35;;;;;;;13.23;9.70;;;-0.80;99.90;;;;;;4973643;28;20494;-76
2022/01/12 05:45:03;;;;;;;12.90;8.33;;;-0.80;99.90;;;;;;4973822;28;20499;-76
2022/01/12 05:47:38;;;;;;;15.50;9.13;;;-0.80;99.90;;;;;;4973683;28;20460;-76
2022/01/12 05:50:05;;;;;;;17.33;10.23;;;-0.80;99.90;;;;;;4973120;28;20455;-76
2022/01/12 05:52:33;;;;;;;20.40;10.83;;;-0.90;99.90;;;;;;4973340;28;20463;-76
2022/01/12 05:55:02;;;;;;;21.90;12.23;;;-0.90;99.90;;;;;;4973132;28;21055;-76
2022/01/12 05:57:29;;;;;;;18.00;10.90;;;-0.90;99.90;;;;;;4973752;28;20455;-76
2022/01/12 05:59:56;;;;;;;16.57;10.00;;;-0.90;99.90;;;;;;4973147;28;20571;-76
2022/01/12 06:02:23;;;;;;;17.30;11.03;;;-0.90;99.90;;;;;;4973468;28;20535;-76
2022/01/12 06:04:51;;;;;;;16.37;9.67;;;-0.90;99.90;;;;;;4973009;28;20495;-76
2022/01/12 06:07:18;;;;;;;14.43;9.87;;;-1.00;99.90;;;;;;4973030;28;20451;-76
2022/01/12 06:09:46;;;;;;;20.60;11.43;;;-1.00;99.90;;;;;;4972719;28;20974;-75
2022/01/12 06:12:13;;;;;;;16.80;9.63;;;-1.00;99.90;;;;;;4973861;28;20463;-76
2022/01/12 06:14:41;;;;;;;40.37;23.03;;;-1.00;99.90;;;;;;4972929;28;20451;-76
2022/01/12 06:17:09;;;;;;;27.37;16.80;;;-1.00;99.90;;;;;;4973098;28;20980;-76
2022/01/12 06:19:36;;;;;;;29.27;11.00;;;-1.00;99.90;;;;;;4972735;28;20535;-76
2022/01/12 06:22:03;;;;;;;22.57;12.17;;;-1.00;99.90;;;;;;4973013;28;20447;-76
2022/01/12 06:24:30;;;;;;;15.10;10.17;;;-1.00;99.90;;;;;;4973420;28;20500;-76
2022/01/12 06:26:59;;;;;;;16.73;10.33;;;-1.00;99.90;;;;;;4972894;28;20476;-77
2022/01/12 06:29:39;;;;;;;13.40;8.60;;;-1.00;99.90;;;;;;4972725;28;20468;-77
2022/01/12 06:32:07;;;;;;;16.80;9.60;;;-1.00;99.90;;;;;;4973288;28;20475;-77
2022/01/12 06:34:34;;;;;;;13.57;9.10;;;-1.00;99.90;;;;;;4973103;28;20452;-77
2022/01/12 06:37:01;;;;;;;15.50;9.50;;;-1.00;99.90;;;;;;4972808;28;20478;-77
2022/01/12 06:39:28;;;;;;;22.03;11.93;;;-1.00;99.90;;;;;;4972597;28;20530;-77
2022/01/12 06:41:57;;;;;;;19.10;11.87;;;-1.10;99.90;;;;;;4972943;28;20527;-77
2022/01/12 06:44:26;;;;;;;21.03;11.90;;;-1.10;99.90;;;;;;4972234;28;20452;-77
2022/01/12 06:46:55;;;;;;;30.70;16.50;;;-1.10;99.90;;;;;;4972677;28;20491;-77
2022/01/12 06:49:22;;;;;;;35.07;15.87;;;-1.20;99.90;;;;;;4973712;28;20454;-77
2022/01/12 06:51:49;;;;;;;36.20;16.20;;;-1.20;99.90;;;;;;4977177;28;20538;-78
2022/01/12 06:54:17;;;;;;;28.73;13.87;;;-1.20;99.90;;;;;;4977131;28;20543;-75
2022/01/12 06:56:44;;;;;;;20.00;11.53;;;-1.30;99.90;;;;;;4976513;28;20487;-75
2022/01/12 06:59:12;;;;;;;19.93;11.40;;;-1.30;99.90;;;;;;4976438;28;20582;-76
2022/01/12 07:01:39;;;;;;;17.40;10.47;;;-1.30;99.90;;;;;;4976697;28;20542;-76
2022/01/12 07:04:06;;;;;;;19.77;11.43;;;-1.30;99.90;;;;;;4976748;28;20494;-75
2022/01/12 07:06:34;;;;;;;20.17;12.53;;;-1.30;99.90;;;;;;4976472;28;20499;-75
2022/01/12 07:09:01;;;;;;;20.43;12.80;;;-1.30;99.90;;;;;;4976497;28;20460;-76
2022/01/12 07:11:28;;;;;;;17.90;12.27;;;-1.30;99.90;;;;;;4976427;28;20606;-76
2022/01/12 07:13:55;;;;;;;22.10;13.50;;;-1.30;99.90;;;;;;4976921;28;20530;-76
2022/01/12 07:16:23;;;;;;;19.77;13.90;;;-1.30;99.90;;;;;;4976219;28;20521;-76
2022/01/12 07:18:50;;;;;;;24.17;14.03;;;-1.20;99.90;;;;;;4976082;28;20628;-76
2022/01/12 07:21:17;;;;;;;20.57;13.20;;;-1.20;99.90;;;;;;4976136;28;21035;-76
2022/01/12 07:23:44;;;;;;;22.50;12.33;;;-1.20;99.90;;;;;;4975721;28;20559;-75
2022/01/12 07:26:12;;;;;;;20.10;13.03;;;-1.30;99.90;;;;;;4975423;28;20531;-76
2022/01/12 07:28:38;;;;;;;16.90;11.40;;;-1.20;99.90;;;;;;4974828;28;20456;-76
2022/01/12 07:31:05;;;;;;;21.73;10.93;;;-1.20;99.90;;;;;;4976039;28;20547;-76
2022/01/12 07:33:35;;;;;;;18.47;10.83;;;-1.20;99.90;;;;;;4976081;28;20491;-75
2022/01/12 07:36:02;;;;;;;22.23;12.43;;;-1.20;99.90;;;;;;4975992;28;20499;-76
2022/01/12 07:38:29;;;;;;;15.07;10.50;;;-1.30;99.90;;;;;;4975657;28;20451;-76
2022/01/12 07:40:56;;;;;;;18.30;11.37;;;-1.30;99.90;;;;;;4975978;28;20535;-76
2022/01/12 07:43:23;;;;;;;17.40;11.53;;;-1.20;99.90;;;;;;4975931;28;20454;-76
2022/01/12 07:45:50;;;;;;;24.40;13.60;;;-1.20;99.90;;;;;;4975702;28;20585;-76
2022/01/12 07:48:17;;;;;;;20.53;12.80;;;-1.20;99.90;;;;;;4975869;28;20539;-76
2022/01/12 07:50:45;;;;;;;21.17;13.50;;;-1.20;99.90;;;;;;4975633;28;20460;-75
2022/01/12 07:53:12;;;;;;;22.00;12.60;;;-1.20;99.90;;;;;;4975557;28;20468;-75
2022/01/12 07:55:39;;;;;;;18.77;12.40;;;-1.10;99.90;;;;;;4975573;28;20500;-75
2022/01/12 07:58:06;;;;;;;20.13;13.07;;;-1.10;99.90;;;;;;4975689;28;20543;-75
2022/01/12 08:00:35;;;;;;;22.60;12.40;;;-1.00;99.90;;;;;;4975259;28;20917;-75
2022/01/12 08:03:01;;;;;;;19.60;12.83;;;-1.00;99.90;;;;;;4974908;28;20456;-76
2022/01/12 08:05:28;;;;;;;24.20;13.67;;;-1.00;99.90;;;;;;4975338;28;20526;-76
2022/01/12 08:07:58;;;;;;;20.67;12.80;;;-1.00;99.90;;;;;;4975364;28;21070;-75
2022/01/12 08:10:25;;;;;;;21.57;13.60;;;-0.90;99.90;;;;;;4975350;28;20460;-75
2022/01/12 08:12:52;;;;;;;40.30;22.70;;;-0.90;99.90;;;;;;4975509;28;20531;-76
2022/01/12 08:15:19;;;;;;;29.80;19.30;;;-0.80;99.90;;;;;;4975057;28;21067;-76
2022/01/12 08:17:46;;;;;;;31.20;15.60;;;-0.80;99.90;;;;;;4975317;28;20487;-76
2022/01/12 08:20:17;;;;;;;24.87;14.57;;;-0.70;99.90;;;;;;4974803;28;20507;-76
2022/01/12 08:22:44;;;;;;;24.57;13.67;;;-0.70;99.90;;;;;;4975279;28;20518;-76
2022/01/12 08:25:12;;;;;;;26.40;14.40;;;-0.80;99.90;;;;;;4974875;28;20590;-76
2022/01/12 08:27:39;;;;;;;26.53;15.57;;;-0.80;99.90;;;;;;4975048;28;20551;-76
2022/01/12 08:30:16;;;;;;;24.67;15.30;;;-0.80;99.90;;;;;;4974751;28;20542;-76
2022/01/12 08:32:43;;;;;;;23.43;15.10;;;-0.70;99.90;;;;;;4974905;28;20550;-76
2022/01/12 08:35:10;;;;;;;26.83;15.00;;;-0.70;99.90;;;;;;4974325;28;20474;-76
2022/01/12 08:37:37;;;;;;;26.83;15.00;;;-0.60;99.90;;;;;;4973943;28;20480;-76
2022/01/12 08:40:06;;;;;;;29.43;14.63;;;-0.40;99.90;;;;;;4974070;28;20531;-76
2022/01/12 08:42:34;;;;;;;25.23;14.40;;;-0.30;99.90;;;;;;4967843;28;20507;-76
2022/01/12 08:45:02;;;;;;;27.80;15.17;;;-0.20;99.90;;;;;;4959948;28;20559;-76
2022/01/12 08:47:29;;;;;;;23.10;14.00;;;-0.20;99.90;;;;;;4955274;28;21284;-76
2022/01/12 08:49:56;;;;;;;23.50;14.13;;;-0.10;99.90;;;;;;4954930;28;20528;-77
2022/01/12 08:52:23;;;;;;;24.90;14.40;;;-0.10;99.90;;;;;;4955279;28;20457;-77
2022/01/12 08:54:50;;;;;;;25.93;14.00;;;-0.10;99.90;;;;;;4955307;28;20540;-76
2022/01/12 08:57:17;;;;;;;22.87;13.70;;;-0.10;99.90;;;;;;4955328;28;20544;-76
2022/01/12 08:59:46;;;;;;;28.70;15.33;;;0.00;99.90;;;;;;4954754;28;20535;-76
2022/01/12 09:02:14;;;;;;;23.43;15.03;;;0.00;99.90;;;;;;4955170;28;20492;-76
2022/01/12 09:04:42;;;;;;;21.60;14.43;;;0.10;99.90;;;;;;4955037;28;20476;-76
2022/01/12 09:07:09;;;;;;;23.67;14.40;;;0.20;99.90;;;;;;4955312;28;20580;-76
2022/01/12 09:09:36;;;;;;;21.87;14.33;;;0.30;99.90;;;;;;4954829;28;20960;-76
2022/01/12 09:12:04;;;;;;;22.77;14.47;;;0.40;99.90;;;;;;4954931;28;20532;-77
2022/01/12 09:14:31;;;;;;;21.93;14.43;;;0.50;99.90;;;;;;4954427;28;20496;-76
2022/01/12 09:17:00;;;;;;;23.30;14.23;;;0.50;99.90;;;;;;4954534;28;20580;-77
2022/01/12 09:19:29;;;;;;;22.40;14.07;;;0.50;99.90;;;;;;4954826;28;20496;-76
2022/01/12 09:21:57;;;;;;;22.57;13.80;;;0.50;99.90;;;;;;4954812;28;20923;-76
2022/01/12 09:24:23;;;;;;;21.37;14.10;;;0.50;99.90;;;;;;4954757;28;20457;-76
2022/01/12 09:26:51;;;;;;;22.30;14.50;;;0.50;99.90;;;;;;4954426;28;20500;-76
2022/01/12 09:29:19;;;;;;;21.90;14.27;;;0.60;99.90;;;;;;4954595;28;20457;-76
2022/01/12 09:31:46;;;;;;;21.70;14.00;;;0.80;99.90;;;;;;4955407;28;20449;-76
2022/01/12 09:34:14;;;;;;;22.10;14.60;;;0.90;99.90;;;;;;4954863;28;20573;-75
2022/01/12 09:36:41;;;;;;;18.63;12.47;;;1.00;99.90;;;;;;4954544;28;21080;-76
2022/01/12 09:39:08;;;;;;;21.20;13.03;;;1.10;99.90;;;;;;4954883;28;20547;-76
2022/01/12 09:41:36;;;;;;;16.80;12.33;;;1.20;99.90;;;;;;4954313;28;20523;-77
2022/01/12 09:44:03;;;;;;;19.00;12.47;;;1.30;99.90;;;;;;4954629;28;20457;-77
2022/01/12 09:46:30;;;;;;;19.37;12.30;;;1.40;99.90;;;;;;4954514;28;20504;-77
2022/01/12 09:49:00;;;;;;;17.90;11.40;;;1.50;99.90;;;;;;4954004;28;20491;-77
2022/01/12 09:51:28;;;;;;;16.23;11.10;;;1.60;99.90;;;;;;4954310;28;20542;-75
2022/01/12 09:53:56;;;;;;;16.77;11.43;;;1.60;99.90;;;;;;4954189;28;20559;-76
2022/01/12 09:56:24;;;;;;;13.83;11.03;;;1.60;99.90;;;;;;4954362;28;20481;-76
2022/01/12 09:58:54;;;;;;;16.37;11.00;;;1.60;99.90;;;;;;4954147;28;20559;-75
2022/01/12 10:01:28;;;;;;;18.10;12.07;;;1.50;99.90;;;;;;4954195;28;20957;-75
2022/01/12 10:04:07;;;;;;;16.17;11.20;;;1.50;99.90;;;;;;4954106;28;20453;-76
2022/01/12 10:06:38;;;;;;;20.87;12.53;;;1.60;99.90;;;;;;4953795;28;20583;-75
2022/01/12 10:09:05;;;;;;;19.03;11.53;;;1.60;99.90;;;;;;4953989;28;20540;-76
2022/01/12 10:11:32;;;;;;;18.07;11.83;;;1.70;99.90;;;;;;4954079;28;20456;-76
2022/01/12 10:14:02;;;;;;;15.67;11.40;;;1.70;99.90;;;;;;4954171;28;20453;-76
2022/01/12 10:16:29;;;;;;;15.53;11.17;;;1.80;99.90;;;;;;4953876;28;20480;-76
2022/01/12 10:19:01;;;;;;;18.00;11.70;;;1.80;99.90;;;;;;4953537;28;20481;-77
2022/01/12 10:21:30;;;;;;;17.67;11.87;;;1.70;99.90;;;;;;4954016;28;20556;-76
2022/01/12 10:24:04;;;;;;;16.63;11.70;;;1.80;99.90;;;;;;4953706;28;20952;-76
2022/01/12 10:26:38;;;;;;;17.13;11.50;;;1.80;99.90;;;;;;4953656;28;20925;-76
2022/01/12 10:29:11;;;;;;;21.73;11.57;;;1.90;99.90;;;;;;4953607;28;20463;-75
2022/01/12 10:31:50;;;;;;;14.87;10.60;;;1.90;99.90;;;;;;4953873;28;20440;-74
2022/01/12 10:34:18;;;;;;;15.87;11.67;;;2.00;99.90;;;;;;4954121;28;20535;-75
2022/01/12 10:36:47;;;;;;;16.60;10.97;;;2.00;99.90;;;;;;4953922;28;20568;-75
2022/01/12 10:39:17;;;;;;;14.27;10.87;;;2.10;99.90;;;;;;4953778;28;20535;-76
2022/01/12 10:41:54;;;;;;;14.60;10.17;;;2.20;99.90;;;;;;4954000;28;20992;-76
2022/01/12 10:44:22;;;;;;;19.23;12.60;;;2.30;99.90;;;;;;4953968;28;20540;-76
2022/01/12 10:46:49;;;;;;;13.87;10.43;;;2.30;99.90;;;;;;4953974;28;20587;-76
2022/01/12 10:49:21;;;;;;;14.30;9.13;;;2.40;99.90;;;;;;4953547;28;20508;-75
2022/01/12 10:51:56;;;;;;;14.80;10.60;;;2.50;99.90;;;;;;4953621;28;20464;-75
2022/01/12 10:54:24;;;;;;;14.07;10.30;;;2.50;99.90;;;;;;4953425;28;20483;-75
2022/01/12 10:56:52;;;;;;;16.20;10.27;;;2.60;99.90;;;;;;4953425;28;21013;-75
2022/01/12 10:59:20;;;;;;;12.00;8.97;;;2.60;99.90;;;;;;4953563;28;20491;-75
2022/01/12 11:01:47;;;;;;;14.50;9.40;;;2.60;99.90;;;;;;4953408;28;20539;-75
2022/01/12 11:04:14;;;;;;;14.40;9.50;;;2.70;99.90;;;;;;4953447;28;20991;-75
2022/01/12 11:06:41;;;;;;;14.03;10.17;;;2.80;99.90;;;;;;4953225;28;21168;-75
2022/01/12 11:09:08;;;;;;;14.60;9.70;;;2.90;99.90;;;;;;4953102;28;20507;-75
2022/01/12 11:11:37;;;;;;;11.70;9.63;;;3.10;99.90;;;;;;4953613;28;20484;-66
2022/01/12 11:14:04;;;;;;;13.80;10.07;;;3.20;99.90;;;;;;4953336;28;20540;-66
2022/01/12 11:16:31;;;;;;;13.33;9.97;;;3.40;99.90;;;;;;4998515;23;21018;-74
2022/01/12 11:19:00;;;;;;;11.17;9.00;;;3.50;99.90;;;;;;4991728;28;20526;-74
2022/01/12 11:21:35;;;;;;;11.33;8.60;;;3.70;99.90;;;;;;4991806;28;20525;-74
2022/01/12 11:24:05;;;;;;;12.27;9.10;;;3.70;99.90;;;;;;4991862;28;20461;-74
2022/01/12 11:26:32;;;;;;;11.83;9.23;;;3.90;99.90;;;;;;4991849;28;20530;-75
2022/01/12 11:29:01;;;;;;;13.10;10.17;;;4.00;99.90;;;;;;4986095;28;20524;-74
2022/01/12 11:31:30;;;;;;;14.53;11.33;;;4.40;99.90;;;;;;4980103;28;21223;-74
2022/01/12 11:33:58;;;;;;;12.10;9.97;;;4.80;99.90;;;;;;4981723;28;20923;-74
2022/01/12 11:36:28;;;;;;;20.00;10.30;;;5.00;99.90;;;;;;4988184;28;20550;-74
2022/01/12 11:39:04;;;;;;;12.70;9.97;;;5.00;99.90;;;;;;4993292;28;20458;-75
2022/01/12 11:41:34;;;;;;;12.40;9.93;;;5.00;99.90;;;;;;4981503;28;20550;-75
2022/01/12 11:44:06;;;;;;;14.07;9.77;;;5.00;99.90;;;;;;4975920;28;20533;-74
2022/01/12 11:46:45;;;;;;;14.13;9.97;;;4.90;99.90;;;;;;4975457;28;20932;-75
2022/01/12 11:49:13;;;;;;;14.70;9.53;;;4.70;99.90;;;;;;4974737;28;20506;-73
2022/01/12 11:51:42;;;;;;;15.17;9.60;;;4.60;99.90;;;;;;4981543;28;20455;-74
2022/01/12 11:54:11;;;;;;;14.50;9.07;;;4.70;99.90;;;;;;4993948;28;20458;-75
2022/01/12 11:56:39;;;;;;;14.77;9.47;;;4.80;99.90;;;;;;4994049;28;21025;-74
2022/01/12 11:59:12;;;;;;;13.03;9.90;;;4.90;99.90;;;;;;4993623;28;20554;-74
2022/01/12 12:01:44;;;;;;;11.43;9.33;;;5.20;99.90;;;;;;4993893;28;20885;-74
2022/01/12 12:04:23;;;;;;;13.87;10.00;;;5.40;99.90;;;;;;4993958;28;20462;-74
2022/01/12 12:06:50;;;;;;;14.40;10.40;;;5.60;99.90;;;;;;4994296;28;21068;-74
2022/01/12 12:09:18;;;;;;;14.37;9.80;;;5.80;99.90;;;;;;4994320;28;20454;-75
2022/01/12 12:11:51;;;;;;;9.97;8.57;;;5.90;99.90;;;;;;4994858;28;20455;-74
2022/01/12 12:14:20;;;;;;;15.00;10.00;;;5.80;99.90;;;;;;4994905;28;20557;-73
2022/01/12 12:16:47;;;;;;;13.33;9.50;;;5.70;99.90;;;;;;4994375;28;20911;-73
2022/01/12 12:19:14;;;;;;;10.80;9.30;;;5.70;99.90;;;;;;4994570;28;20478;-73
2022/01/12 12:21:48;;;;;;;11.50;9.00;;;5.70;99.90;;;;;;4994365;28;20831;-74
2022/01/12 12:24:17;;;;;;;12.10;8.90;;;5.70;99.90;;;;;;4994509;28;20469;-74
2022/01/12 12:26:52;;;;;;;12.60;9.23;;;5.90;99.90;;;;;;4994582;28;20869;-74
2022/01/12 12:29:27;;;;;;;10.80;8.83;;;6.00;99.90;;;;;;4994571;28;20459;-73
2022/01/12 12:31:56;;;;;;;12.50;9.63;;;6.00;99.90;;;;;;4994575;28;20457;-73
2022/01/12 12:34:24;;;;;;;12.80;10.10;;;5.90;99.90;;;;;;4994190;28;20491;-74
2022/01/12 12:36:57;;;;;;;12.47;9.43;;;6.00;99.90;;;;;;4994235;28;20501;-74
2022/01/12 12:39:24;;;;;;;9.83;8.30;;;5.90;99.90;;;;;;4994019;28;20491;-74
2022/01/12 12:41:51;;;;;;;12.80;9.47;;;6.00;99.90;;;;;;4994225;28;20451;-72
2022/01/12 12:44:27;;;;;;;12.20;8.93;;;6.00;99.90;;;;;;4994202;28;20463;-73
2022/01/12 12:47:07;;;;;;;12.70;9.50;;;5.80;99.90;;;;;;4993885;28;20583;-73
2022/01/12 12:49:37;;;;;;;10.30;8.53;;;5.60;99.90;;;;;;4993804;28;20570;-73
2022/01/12 12:52:05;;;;;;;14.30;9.30;;;5.40;99.90;;;;;;4994086;28;20515;-74
2022/01/12 12:54:32;;;;;;;12.40;8.87;;;5.30;99.90;;;;;;4993933;28;20825;-74
2022/01/12 12:57:07;;;;;;;12.07;9.63;;;5.20;99.90;;;;;;4993974;28;20542;-75
2022/01/12 12:59:35;;;;;;;11.90;9.70;;;5.20;99.90;;;;;;4993776;28;20530;-75
2022/01/12 13:02:11;;;;;;;11.67;9.50;;;5.20;99.90;;;;;;4993937;28;20530;-75
2022/01/12 13:04:45;;;;;;;17.53;10.63;;;5.10;99.90;;;;;;4993820;28;20836;-75
2022/01/12 13:07:17;;;;;;;12.53;9.60;;;5.10;99.90;;;;;;4993780;28;20490;-74
2022/01/12 13:09:45;;;;;;;11.93;9.10;;;5.10;99.90;;;;;;4993329;28;20824;-73
2022/01/12 13:12:14;;;;;;;11.07;8.70;;;5.00;99.90;;;;;;4993900;28;20562;-73
2022/01/12 13:14:49;;;;;;;12.20;9.30;;;4.80;99.90;;;;;;4993764;28;20541;-74
2022/01/12 13:17:16;;;;;;;11.37;9.23;;;4.60;99.90;;;;;;4993362;28;20482;-74
2022/01/12 13:22:33;;;;;;;15.50;9.90;;;4.70;99.90;;;;;;4993533;28;20566;-74
2022/01/12 13:25:03;;;;;;;12.60;9.67;;;4.90;99.90;;;;;;4993550;28;20439;-74
2022/01/12 13:27:35;;;;;;;14.90;10.03;;;4.90;99.90;;;;;;4993323;28;20495;-74
2022/01/12 13:30:06;;;;;;;12.40;9.10;;;5.00;99.90;;;;;;4993169;28;20534;-73
2022/01/12 13:32:34;;;;;;;14.00;10.20;;;4.90;99.90;;;;;;4993356;28;20455;-75
2022/01/12 13:35:04;;;;;;;13.50;9.80;;;4.70;99.90;;;;;;4993273;28;20491;-73
2022/01/12 13:37:33;;;;;;;12.27;9.53;;;4.60;99.90;;;;;;4993444;28;20542;-74
2022/01/12 13:40:07;;;;;;;14.97;10.13;;;4.50;99.90;;;;;;4987737;28;20447;-74
2022/01/12 13:42:45;;;;;;;13.57;10.10;;;4.50;99.90;;;;;;4993206;28;20966;-74
2022/01/12 13:45:16;;;;;;;14.30;10.70;;;4.40;99.90;;;;;;4992973;28;20490;-73
2022/01/12 13:47:48;;;;;;;15.03;11.80;;;4.40;99.90;;;;;;4992753;28;20560;-73
2022/01/12 13:50:17;;;;;;;12.90;10.13;;;4.40;99.90;;;;;;4991807;28;20462;-73
2022/01/12 13:52:54;;;;;;;14.30;10.70;;;4.60;99.90;;;;;;4992200;28;20463;-74
2022/01/12 13:55:21;;;;;;;12.10;9.17;;;4.70;99.90;;;;;;4991902;28;20450;-75
2022/01/12 13:57:56;;;;;;;13.80;10.47;;;4.70;99.90;;;;;;4991683;28;20489;-74
2022/01/12 14:00:24;;;;;;;14.00;10.87;;;4.70;99.90;;;;;;4992009;28;20455;-73
2022/01/12 14:02:51;;;;;;;13.97;9.77;;;4.80;99.90;;;;;;4991740;28;20490;-74
2022/01/12 14:05:20;;;;;;;16.40;10.83;;;4.80;99.90;;;;;;4992008;28;20461;-74
2022/01/12 14:08:00;;;;;;;13.23;10.10;;;4.80;99.90;;;;;;4991804;28;20593;-74
2022/01/12 14:10:29;;;;;;;12.63;9.80;;;4.90;99.90;;;;;;4991599;28;20454;-73
2022/01/12 14:12:56;;;;;;;14.03;10.17;;;5.00;99.90;;;;;;4992011;28;20533;-73
2022/01/12 14:15:26;;;;;;;19.23;11.10;;;4.90;99.90;;;;;;4991586;28;20970;-73
2022/01/12 14:17:58;;;;;;;13.63;10.70;;;5.00;99.90;;;;;;4991643;28;20546;-73
2022/01/12 14:20:36;;;;;;;13.63;10.77;;;4.90;99.90;;;;;;4991375;28;20447;-74
2022/01/12 14:23:05;;;;;;;16.40;11.77;;;4.80;99.90;;;;;;4991941;28;20856;-73
2022/01/12 14:25:38;;;;;;;15.00;11.17;;;4.80;99.90;;;;;;4991542;28;20464;-73
2022/01/12 14:28:06;;;;;;;14.03;10.80;;;4.80;99.90;;;;;;4991615;28;20577;-76
2022/01/12 14:30:34;;;;;;;14.30;10.13;;;4.70;99.90;;;;;;4991956;28;20477;-73
2022/01/12 14:33:01;;;;;;;14.00;10.40;;;4.70;99.90;;;;;;4992331;28;20497;-74
2022/01/12 14:35:28;;;;;;;18.23;11.40;;;4.70;99.90;;;;;;4992560;28;20534;-73
2022/01/12 14:37:56;;;;;;;15.20;10.83;;;4.60;99.90;;;;;;4992572;28;20494;-74
2022/01/12 14:40:24;;;;;;;15.63;10.63;;;4.60;99.90;;;;;;4992068;28;20455;-73
2022/01/12 14:42:53;;;;;;;17.50;12.73;;;4.60;99.90;;;;;;4992408;28;20475;-73
2022/01/12 14:45:24;;;;;;;16.40;11.93;;;4.50;99.90;;;;;;4992285;28;20436;-73
2022/01/12 14:47:53;;;;;;;17.40;12.20;;;4.50;99.90;;;;;;4992194;28;20498;-73
2022/01/12 14:50:20;;;;;;;16.87;12.70;;;4.40;99.90;;;;;;4992600;28;20482;-74
2022/01/12 14:52:48;;;;;;;16.13;11.80;;;4.30;99.90;;;;;;4992446;28;20482;-76
2022/01/12 14:55:16;;;;;;;16.23;12.60;;;4.40;99.90;;;;;;4992421;28;20461;-74
2022/01/12 14:57:43;;;;;;;15.90;11.87;;;4.30;99.90;;;;;;4992214;28;20967;-73
2022/01/12 15:00:16;;;;;;;13.83;10.37;;;4.30;99.90;;;;;;4991774;28;20549;-73
2022/01/12 15:02:44;;;;;;;14.97;11.17;;;4.30;99.90;;;;;;4992301;28;20565;-74
2022/01/12 15:05:12;;;;;;;15.47;11.37;;;4.30;99.90;;;;;;4984619;28;20471;-75
2022/01/12 15:07:39;;;;;;;14.83;11.10;;;4.30;99.90;;;;;;4972728;28;20583;-74
2022/01/12 15:10:07;;;;;;;14.80;10.70;;;4.20;99.90;;;;;;4972576;28;20563;-74
2022/01/12 15:12:37;;;;;;;15.10;10.67;;;4.20;99.90;;;;;;4972443;28;20928;-75
2022/01/12 15:15:07;;;;;;;16.10;13.00;;;4.20;99.90;;;;;;4976528;28;20448;-75
2022/01/12 15:17:35;;;;;;;18.27;12.30;;;4.00;99.90;;;;;;4976370;28;20519;-75
2022/01/12 15:20:07;;;;;;;15.63;12.43;;;4.00;99.90;;;;;;4976198;28;20531;-75
2022/01/12 15:22:36;;;;;;;20.67;14.00;;;4.00;99.90;;;;;;4976326;28;20980;-75
2022/01/12 15:25:04;;;;;;;19.80;13.13;;;3.90;99.90;;;;;;4976101;28;20952;-76
2022/01/12 15:27:31;;;;;;;19.33;13.87;;;3.90;99.90;;;;;;4976335;28;20586;-76
2022/01/12 15:29:58;;;;;;;18.60;13.30;;;3.90;99.90;;;;;;4976080;28;20462;-75
2022/01/12 15:32:26;;;;;;;16.30;12.47;;;3.90;99.90;;;;;;4976131;28;20514;-75
2022/01/12 15:34:53;;;;;;;15.37;11.63;;;4.00;99.90;;;;;;4975959;28;20455;-76
2022/01/12 15:37:20;;;;;;;21.57;15.30;;;3.90;99.90;;;;;;4976003;28;20467;-75
2022/01/12 15:39:49;;;;;;;28.30;14.80;;;3.80;99.90;;;;;;4975616;28;20471;-77
2022/01/12 15:42:16;;;;;;;19.50;12.83;;;3.80;99.90;;;;;;4975942;28;20899;-76
2022/01/12 15:44:43;;;;;;;22.70;15.00;;;3.80;99.90;;;;;;4976017;28;20543;-75
2022/01/12 15:47:12;;;;;;;25.90;16.80;;;3.80;99.90;;;;;;4975642;28;20504;-75
2022/01/12 15:49:39;;;;;;;20.07;14.90;;;3.70;99.90;;;;;;4975469;28;20535;-75
2022/01/12 15:52:06;;;;;;;18.80;13.37;;;3.70;99.90;;;;;;4975726;28;20506;-63
2022/01/12 15:54:33;;;;;;;19.53;14.00;;;3.60;99.90;;;;;;4975670;28;20464;-64
2022/01/12 15:57:02;;;;;;;22.80;15.23;;;3.50;99.90;;;;;;4975647;28;20573;-63
2022/01/12 15:59:29;;;;;;;18.37;14.10;;;3.30;99.90;;;;;;4975438;28;20480;-64
2022/01/12 16:01:56;;;;;;;26.00;15.43;;;3.20;99.90;;;;;;4975591;28;20612;-64
2022/01/12 16:04:23;;;;;;;20.03;13.50;;;3.20;99.90;;;;;;4975682;28;20534;-64
2022/01/12 16:06:50;;;;;;;24.60;14.47;;;3.10;99.90;;;;;;4975280;28;20534;-64
2022/01/12 16:09:17;;;;;;;33.70;14.73;;;3.00;99.90;;;;;;4975354;28;20585;-64
2022/01/12 16:11:44;;;;;;;28.73;17.07;;;3.00;99.90;;;;;;4975339;28;20463;-64
2022/01/12 16:14:12;;;;;;;24.87;16.57;;;3.00;99.90;;;;;;4975540;28;20480;-64
2022/01/12 16:16:39;;;;;;;25.80;16.00;;;2.80;99.90;;;;;;4975068;28;20860;-63
2022/01/12 16:19:08;;;;;;;25.63;15.83;;;2.80;99.90;;;;;;4974997;28;20546;-64
2022/01/12 16:21:35;;;;;;;24.83;15.27;;;2.70;99.90;;;;;;4975109;28;20459;-76
2022/01/12 16:24:03;;;;;;;22.63;14.67;;;2.60;99.90;;;;;;4974917;28;20539;-74
2022/01/12 16:26:31;;;;;;;21.07;14.77;;;2.60;99.90;;;;;;4975420;28;20479;-75
2022/01/12 16:28:58;;;;;;;25.40;16.20;;;2.50;99.90;;;;;;4974208;28;20534;-75
2022/01/12 16:31:29;;;;;;;24.10;16.50;;;2.60;99.90;;;;;;4974355;28;20828;-75
2022/01/12 16:33:58;;;;;;;24.40;16.27;;;2.50;99.90;;;;;;4975080;28;20455;-75
2022/01/12 16:36:26;;;;;;;26.40;15.10;;;2.50;99.90;;;;;;4974964;28;20557;-75
2022/01/12 16:38:55;;;;;;;23.67;15.20;;;2.50;99.90;;;;;;4974767;28;20456;-75
2022/01/12 16:41:22;;;;;;;24.70;15.70;;;2.40;99.90;;;;;;4975060;28;20451;-74
2022/01/12 16:43:49;;;;;;;27.20;15.27;;;2.40;99.90;;;;;;4974858;28;20491;-74
2022/01/12 16:46:19;;;;;;;27.37;16.80;;;2.30;99.90;;;;;;4974792;28;20563;-74
2022/01/12 16:48:48;;;;;;;29.73;17.80;;;2.30;99.90;;;;;;4974628;28;20486;-74
2022/01/12 16:51:15;;;;;;;23.27;15.93;;;2.30;99.90;;;;;;4974944;28;20451;-74
2022/01/12 16:53:43;;;;;;;24.93;16.27;;;2.30;99.90;;;;;;4974733;28;20492;-75
2022/01/12 16:56:13;;;;;;;26.43;16.40;;;2.20;99.90;;;;;;4974875;28;20482;-74
2022/01/12 16:58:41;;;;;;;29.00;18.40;;;2.20;99.90;;;;;;4974451;28;20448;-74
2022/01/12 17:01:08;;;;;;;30.50;19.33;;;2.20;99.90;;;;;;4973999;28;20456;-74
2022/01/12 17:03:37;;;;;;;27.97;18.50;;;2.20;99.90;;;;;;4974433;28;20819;-74
2022/01/12 17:06:06;;;;;;;29.07;19.07;;;2.20;99.90;;;;;;4974379;28;20472;-75
2022/01/12 17:08:33;;;;;;;30.23;18.47;;;2.20;99.90;;;;;;4974623;28;20606;-75
2022/01/12 17:11:00;;;;;;;27.50;19.10;;;2.10;99.90;;;;;;4974228;28;20452;-75
2022/01/12 17:13:27;;;;;;;29.83;17.97;;;2.10;99.90;;;;;;4974432;28;20542;-75
2022/01/12 17:16:39;;;;;;;23.47;15.63;;;2.10;99.90;;;;;;4974930;28;20480;-75
2022/01/12 17:19:11;;;;;;;28.37;17.67;;;2.00;99.90;;;;;;4974057;28;20459;-75
2022/01/12 17:21:41;;;;;;;30.77;21.03;;;2.00;99.90;;;;;;4974296;28;20444;-75
2022/01/12 17:24:28;;;;;;;32.80;21.07;;;2.00;99.90;;;;;;4974341;28;20503;-74
2022/01/12 17:27:15;;;;;;;36.20;23.40;;;2.00;99.90;;;;;;4974323;28;20554;-75
2022/01/12 17:29:44;;;;;;;32.90;20.40;;;1.90;99.90;;;;;;4974167;28;20571;-76
2022/01/12 17:32:11;;;;;;;29.30;20.47;;;1.90;99.90;;;;;;4973949;28;20456;-75
2022/01/12 17:34:38;;;;;;;32.80;19.80;;;1.90;99.90;;;;;;4973764;28;20456;-75
2022/01/12 17:37:08;;;;;;;27.90;19.70;;;1.90;99.90;;;;;;4973463;28;20563;-75
2022/01/12 17:39:37;;;;;;;31.57;21.27;;;1.90;99.90;;;;;;4974155;28;20448;-75
2022/01/12 17:42:08;;;;;;;28.43;17.33;;;1.90;99.90;;;;;;4974274;28;20911;-74
2022/01/12 17:44:37;;;;;;;27.30;17.53;;;1.80;99.90;;;;;;4973814;28;20471;-75
2022/01/12 17:47:07;;;;;;;27.20;16.53;;;1.80;99.90;;;;;;4973698;28;20892;-75
2022/01/12 17:52:20;;;;;;;39.87;22.20;;;1.70;99.90;;;;;;4973882;28;20419;-74
2022/01/12 17:54:47;;;;;;;48.87;27.90;;;1.70;99.90;;;;;;4973901;28;20483;-75